createdAt,value
2023-04-21T00:00:53.163Z,30.23
2023-04-21T00:03:23.059Z,30.07
2023-04-21T00:05:50.113Z,29.99
2023-04-21T00:08:16.932Z,30.06
2023-04-21T00:10:44.076Z,30.05
2023-04-21T00:13:10.774Z,30.07
2023-04-21T00:15:37.488Z,30.09
2023-04-21T00:18:04.276Z,30.18
2023-04-21T00:20:31.414Z,30.22
2023-04-21T00:22:58.249Z,30.05
2023-04-21T00:25:25.249Z,30.19
2023-04-21T00:27:51.902Z,30.12
2023-04-21T00:30:18.551Z,30.11
2023-04-21T00:32:45.171Z,30.23
2023-04-21T00:35:11.857Z,30.22
2023-04-21T00:37:40.889Z,30.19
2023-04-21T00:40:08.508Z,30.09
2023-04-21T00:42:35.165Z,30.19
2023-04-21T00:45:05.654Z,30.28
2023-04-21T00:47:32.288Z,30.19
2023-04-21T00:49:58.940Z,30.15
2023-04-21T00:52:25.905Z,30.31
2023-04-21T00:54:52.747Z,30.20
2023-04-21T00:57:19.992Z,30.17
2023-04-21T00:59:47.378Z,30.23
2023-04-21T01:02:17.646Z,30.30
2023-04-21T01:04:44.973Z,30.37
2023-04-21T01:07:11.779Z,30.30
2023-04-21T01:09:38.438Z,30.23
2023-04-21T01:12:06.081Z,30.33
2023-04-21T01:14:35.019Z,30.29
2023-04-21T01:17:03.633Z,30.28
2023-04-21T01:19:32.166Z,30.36
2023-04-21T01:22:01.308Z,30.27
2023-04-21T01:24:42.790Z,30.35
2023-04-21T01:27:16.038Z,30.35
2023-04-21T01:29:42.952Z,30.42
2023-04-21T01:32:11.786Z,30.29
2023-04-21T01:34:39.538Z,30.27
2023-04-21T01:37:14.023Z,30.28
2023-04-21T01:39:41.898Z,30.22
2023-04-21T01:42:08.650Z,30.27
2023-04-21T01:44:35.650Z,30.37
2023-04-21T01:47:02.730Z,30.25
2023-04-21T01:49:29.358Z,30.22
2023-04-21T01:51:56.914Z,30.17
2023-04-21T01:54:23.551Z,30.26
2023-04-21T01:56:50.281Z,30.23
2023-04-21T01:59:17.218Z,30.20
2023-04-21T02:01:45.331Z,30.17
2023-04-21T02:04:12.089Z,30.09
2023-04-21T02:06:38.743Z,30.20
2023-04-21T02:09:06.452Z,30.14
2023-04-21T02:11:33.192Z,30.17
2023-04-21T02:13:59.796Z,30.23
2023-04-21T02:16:26.536Z,30.09
2023-04-21T02:18:53.915Z,30.07
2023-04-21T02:21:21.072Z,30.11
2023-04-21T02:23:49.024Z,30.06
2023-04-21T02:26:15.654Z,30.13
2023-04-21T02:28:42.288Z,30.13
2023-04-21T02:31:09.082Z,29.98
2023-04-21T02:33:35.918Z,29.99
2023-04-21T02:36:03.137Z,30.06
2023-04-21T02:38:30.090Z,30.01
2023-04-21T02:40:57.186Z,29.99
2023-04-21T02:43:24.020Z,29.98
2023-04-21T02:45:50.948Z,29.90
2023-04-21T02:48:22.242Z,30.02
2023-04-21T02:50:50.019Z,30.03
2023-04-21T02:53:16.833Z,29.85
2023-04-21T02:55:43.522Z,29.99
2023-04-21T02:58:10.397Z,29.95
2023-04-21T03:00:37.063Z,29.89
2023-04-21T03:03:03.825Z,29.81
2023-04-21T03:05:30.600Z,29.80
2023-04-21T03:07:57.192Z,29.74
2023-04-21T03:10:23.941Z,29.83
2023-04-21T03:12:50.518Z,29.78
2023-04-21T03:15:17.290Z,29.86
2023-04-21T03:17:44.024Z,29.88
2023-04-21T03:20:12.124Z,29.74
2023-04-21T03:22:39.013Z,29.85
2023-04-21T03:25:06.678Z,29.84
2023-04-21T03:27:34.035Z,29.94
2023-04-21T03:30:00.768Z,29.80
2023-04-21T03:32:27.408Z,29.74
2023-04-21T03:34:54.552Z,29.76
2023-04-21T03:37:21.090Z,29.76
2023-04-21T03:39:48.743Z,30.01
2023-04-21T03:42:15.655Z,30.21
2023-04-21T03:44:42.228Z,30.47
2023-04-21T03:47:08.804Z,30.62
2023-04-21T03:49:35.838Z,30.64
2023-04-21T03:52:02.652Z,30.42
2023-04-21T03:54:29.284Z,29.69
2023-04-21T03:56:55.902Z,28.47
2023-04-21T03:59:22.599Z,29.30
2023-04-21T04:01:49.130Z,29.69
2023-04-21T04:04:15.997Z,29.70
2023-04-21T04:06:42.720Z,29.81
2023-04-21T04:09:09.366Z,29.15
2023-04-21T04:11:36.090Z,28.95
2023-04-21T04:14:02.664Z,28.64
2023-04-21T04:16:29.575Z,28.62
2023-04-21T04:18:56.296Z,28.57
2023-04-21T04:21:22.881Z,28.67
2023-04-21T04:23:51.641Z,28.74
2023-04-21T04:26:18.472Z,28.59
2023-04-21T04:28:45.478Z,28.93
2023-04-21T04:31:12.942Z,29.17
2023-04-21T04:33:42.900Z,29.55
2023-04-21T04:36:11.244Z,29.99
2023-04-21T04:38:37.832Z,30.56
2023-04-21T04:41:05.633Z,31.28
2023-04-21T04:43:41.162Z,32.00
2023-04-21T04:46:08.672Z,31.89
2023-04-21T04:48:35.212Z,31.44
2023-04-21T04:51:01.816Z,31.09
2023-04-21T04:53:28.429Z,31.03
2023-04-21T04:55:56.927Z,31.08
2023-04-21T04:58:23.967Z,31.02
2023-04-21T05:00:50.635Z,30.89
2023-04-21T05:03:17.396Z,30.72
2023-04-21T05:05:45.506Z,30.75
2023-04-21T05:08:12.217Z,30.89
2023-04-21T05:10:38.803Z,30.84
2023-04-21T05:13:06.072Z,30.70
2023-04-21T05:15:32.614Z,30.70
2023-04-21T05:17:59.225Z,30.62
2023-04-21T05:20:25.881Z,30.55
2023-04-21T05:22:52.467Z,30.60
2023-04-21T05:25:19.095Z,30.48
2023-04-21T05:27:45.660Z,30.49
2023-04-21T05:30:12.301Z,30.60
2023-04-21T05:32:39.044Z,30.53
2023-04-21T05:35:06.258Z,30.45
2023-04-21T05:37:32.904Z,30.46
2023-04-21T05:39:59.927Z,30.38
2023-04-21T05:42:26.554Z,30.29
2023-04-21T05:44:53.554Z,30.34
2023-04-21T05:47:20.231Z,30.35
2023-04-21T05:49:49.571Z,30.34
2023-04-21T05:52:17.098Z,30.40
2023-04-21T05:54:43.819Z,30.27
2023-04-21T05:57:10.359Z,30.31
2023-04-21T05:59:37.001Z,30.07
2023-04-21T06:02:03.908Z,30.04
2023-04-21T06:04:30.870Z,30.14
2023-04-21T06:06:57.724Z,30.12
2023-04-21T06:09:24.287Z,30.06
2023-04-21T06:11:50.960Z,30.32
2023-04-21T06:14:17.821Z,30.26
2023-04-21T06:16:44.989Z,30.10
2023-04-21T06:19:11.715Z,30.15
2023-04-21T06:21:38.245Z,30.16
2023-04-21T06:24:05.035Z,30.09
2023-04-21T06:26:31.596Z,30.15
2023-04-21T06:28:58.182Z,30.10
2023-04-21T06:31:24.847Z,30.12
2023-04-21T06:33:51.545Z,30.05
2023-04-21T06:36:18.299Z,30.18
2023-04-21T06:38:44.876Z,29.91
2023-04-21T06:41:11.407Z,29.99
2023-04-21T06:43:38.024Z,30.07
2023-04-21T06:46:04.837Z,29.92
2023-04-21T06:48:31.533Z,29.89
2023-04-21T06:50:58.290Z,29.78
2023-04-21T06:53:25.041Z,29.80
2023-04-21T06:55:52.746Z,29.86
2023-04-21T06:58:21.162Z,29.78
2023-04-21T07:00:48.376Z,29.83
2023-04-21T07:03:15.268Z,29.89
2023-04-21T07:05:41.838Z,30.23
2023-04-21T07:08:08.424Z,30.21
2023-04-21T07:10:35.084Z,30.42
2023-04-21T07:13:01.683Z,30.48
2023-04-21T07:15:28.244Z,30.20
2023-04-21T07:17:55.098Z,30.32
2023-04-21T07:20:21.719Z,30.21
2023-04-21T07:22:48.297Z,30.16
2023-04-21T07:25:15.256Z,30.25
2023-04-21T07:27:41.912Z,30.60
2023-04-21T07:30:08.871Z,30.43
2023-04-21T07:32:37.813Z,30.35
2023-04-21T07:35:05.927Z,30.65
2023-04-21T07:37:32.608Z,30.70
2023-04-21T07:39:59.298Z,30.57
2023-04-21T07:42:26.255Z,30.82
2023-04-21T07:44:53.078Z,30.68
2023-04-21T07:47:19.961Z,30.56
2023-04-21T07:49:46.754Z,30.80
2023-04-21T07:52:13.407Z,30.55
2023-04-21T07:54:39.991Z,30.66
2023-04-21T07:57:06.890Z,30.75
2023-04-21T07:59:33.376Z,30.66
2023-04-21T08:02:00.243Z,30.62
2023-04-21T08:04:27.158Z,30.72
2023-04-21T08:06:54.342Z,30.69
2023-04-21T08:09:21.222Z,30.80
2023-04-21T08:11:48.041Z,30.60
2023-04-21T08:14:14.727Z,30.40
2023-04-21T08:16:41.644Z,30.66
2023-04-21T08:19:08.677Z,30.62
2023-04-21T08:21:35.697Z,30.62
2023-04-21T08:24:02.295Z,30.66
2023-04-21T08:26:29.740Z,30.37
2023-04-21T08:28:56.613Z,30.45
2023-04-21T08:31:23.272Z,30.47
2023-04-21T08:34:00.463Z,30.49
2023-04-21T08:36:30.214Z,30.36
2023-04-21T08:38:57.609Z,30.48
2023-04-21T08:41:24.898Z,30.45
2023-04-21T08:43:51.583Z,30.46
2023-04-21T08:46:18.395Z,30.40
2023-04-21T08:48:45.683Z,30.44
2023-04-21T08:51:12.459Z,30.48
2023-04-21T08:53:40.695Z,30.61
2023-04-21T08:56:11.244Z,30.08
2023-04-21T08:58:38.750Z,29.36
2023-04-21T09:01:05.624Z,29.05
2023-04-21T09:03:32.524Z,28.85
2023-04-21T09:06:08.157Z,28.64
2023-04-21T09:08:37.639Z,28.46
2023-04-21T09:11:04.369Z,28.28
2023-04-21T09:13:37.111Z,28.07
2023-04-21T09:16:08.708Z,27.87
2023-04-21T09:18:36.330Z,27.58
2023-04-21T09:21:08.615Z,27.70
2023-04-21T09:23:41.947Z,27.72
2023-04-21T09:26:09.063Z,27.36
2023-04-21T09:28:35.697Z,27.30
2023-04-21T09:31:02.591Z,27.05
2023-04-21T09:33:36.650Z,27.34
2023-04-21T09:36:19.237Z,27.25
2023-04-21T09:39:12.851Z,27.10
2023-04-21T09:41:43.646Z,27.08
2023-04-21T09:44:10.297Z,26.91
2023-04-21T09:46:37.082Z,26.92
2023-04-21T09:49:04.014Z,26.83
2023-04-21T09:51:49.205Z,26.67
2023-04-21T09:54:29.238Z,26.72
2023-04-21T09:57:02.369Z,26.66
2023-04-21T09:59:34.539Z,26.53
2023-04-21T10:02:01.708Z,26.48
2023-04-21T10:04:29.092Z,26.60
2023-04-21T10:06:56.237Z,26.55
2023-04-21T10:09:23.549Z,26.72
2023-04-21T10:11:51.253Z,26.59
2023-04-21T10:14:18.020Z,26.86
2023-04-21T10:16:44.822Z,26.88
2023-04-21T10:19:27.397Z,27.19
2023-04-21T10:21:59.563Z,27.51
2023-04-21T10:39:46.867Z,28.49
2023-04-21T10:42:17.073Z,28.54
2023-04-21T10:44:44.493Z,28.74
2023-04-21T10:47:11.827Z,28.66
2023-04-21T10:49:39.016Z,28.75
2023-04-21T10:52:06.978Z,28.79
2023-04-21T10:54:45.119Z,28.75
2023-04-21T10:57:13.212Z,29.02
2023-04-21T10:59:39.969Z,29.15
2023-04-21T11:02:17.382Z,28.89
2023-04-21T11:04:47.377Z,28.88
2023-04-21T11:07:16.115Z,28.81
2023-04-21T11:09:43.389Z,28.84
2023-04-21T11:12:11.519Z,28.81
2023-04-21T11:14:39.173Z,28.68
2023-04-21T11:17:11.118Z,28.78
2023-04-21T11:19:37.765Z,28.84
2023-04-21T11:22:04.802Z,28.69
2023-04-21T11:24:31.906Z,28.63
2023-04-21T11:27:00.517Z,28.76
2023-04-21T11:29:29.062Z,28.57
2023-04-21T11:31:55.768Z,28.46
2023-04-21T11:34:24.506Z,28.53
2023-04-21T11:36:51.259Z,28.59
2023-04-21T11:39:22.010Z,28.56
2023-04-21T11:41:50.258Z,28.58
2023-04-21T11:44:36.091Z,28.69
2023-04-21T11:47:16.410Z,28.63
2023-04-21T11:49:54.076Z,28.68
2023-04-21T11:52:20.945Z,28.58
2023-04-21T11:54:47.887Z,28.72
2023-04-21T11:57:18.030Z,28.70
2023-04-21T11:59:46.267Z,28.76
2023-04-21T12:02:20.111Z,28.54
2023-04-21T12:04:56.815Z,28.73
2023-04-21T12:07:23.581Z,28.74
2023-04-21T12:09:53.366Z,28.66
2023-04-21T12:12:21.570Z,28.71
2023-04-21T12:14:48.832Z,28.69
2023-04-21T12:17:15.496Z,28.64
2023-04-21T12:19:42.367Z,28.61
2023-04-21T12:22:09.083Z,28.62
2023-04-21T12:24:36.793Z,28.86
2023-04-21T12:27:03.947Z,28.64
2023-04-21T12:29:37.850Z,28.62
2023-04-21T12:32:05.538Z,28.76
2023-04-21T12:34:32.286Z,28.90
2023-04-21T12:36:58.920Z,28.67
2023-04-21T12:39:25.485Z,28.26
2023-04-21T12:41:52.177Z,27.76
2023-04-21T12:44:18.725Z,27.48
2023-04-21T12:46:45.444Z,27.72
2023-04-21T12:49:12.116Z,27.87
2023-04-21T12:51:38.758Z,27.41
2023-04-21T12:54:05.679Z,27.05
2023-04-21T12:56:32.351Z,26.86
2023-04-21T12:58:58.982Z,26.47
2023-04-21T13:01:25.631Z,26.92
2023-04-21T13:03:52.391Z,26.92
2023-04-21T13:06:19.246Z,26.81
2023-04-21T13:08:45.976Z,26.51
2023-04-21T13:11:13.117Z,26.38
2023-04-21T13:13:39.833Z,26.79
2023-04-21T13:16:06.459Z,26.99
2023-04-21T13:18:36.949Z,27.11
2023-04-21T13:21:03.732Z,27.27
2023-04-21T13:23:30.334Z,27.29
2023-04-21T13:25:57.038Z,27.59
2023-04-21T13:28:23.813Z,27.49
2023-04-21T13:30:50.873Z,27.66
2023-04-21T13:33:17.713Z,27.71
2023-04-21T13:35:44.300Z,27.84
2023-04-21T13:38:11.616Z,27.77
2023-04-21T13:40:38.313Z,28.07
2023-04-21T13:43:04.936Z,28.16
2023-04-21T13:45:31.608Z,28.03
2023-04-21T13:47:58.469Z,27.90
2023-04-21T13:50:25.318Z,28.06
2023-04-21T13:52:52.118Z,28.18
2023-04-21T13:55:18.776Z,28.01
2023-04-21T13:57:45.369Z,28.06
2023-04-21T14:00:12.418Z,28.08
2023-04-21T14:02:39.741Z,27.82
2023-04-21T14:05:07.058Z,27.87
2023-04-21T14:07:35.161Z,27.91
2023-04-21T14:10:01.838Z,28.00
2023-04-21T14:12:28.595Z,27.94
2023-04-21T14:14:55.127Z,28.09
2023-04-21T14:17:22.492Z,28.19
2023-04-21T14:19:49.585Z,28.15
2023-04-21T14:22:16.662Z,27.89
2023-04-21T14:24:43.469Z,27.78
2023-04-21T14:27:10.274Z,27.75
2023-04-21T14:29:37.051Z,27.90
2023-04-21T14:32:03.767Z,27.87
2023-04-21T14:34:30.461Z,27.93
2023-04-21T14:36:57.242Z,27.98
2023-04-21T14:39:23.860Z,27.89
2023-04-21T14:41:50.479Z,27.59
2023-04-21T14:44:18.286Z,27.40
2023-04-21T14:46:53.351Z,26.96
2023-04-21T14:49:27.946Z,26.59
2023-04-21T14:51:54.780Z,26.32
2023-04-21T14:54:21.424Z,26.28
2023-04-21T14:56:48.038Z,26.21
2023-04-21T14:59:14.624Z,26.25
2023-04-21T15:01:41.343Z,26.28
2023-04-21T15:04:08.221Z,26.28
2023-04-21T15:06:35.048Z,26.40
2023-04-21T15:09:01.571Z,26.53
2023-04-21T15:11:28.195Z,26.61
2023-04-21T15:13:55.048Z,26.80
2023-04-21T15:16:21.646Z,26.74
2023-04-21T15:18:48.375Z,26.79
2023-04-21T15:21:14.990Z,26.81
2023-04-21T15:23:41.651Z,26.77
2023-04-21T15:26:09.646Z,26.96
2023-04-21T15:28:38.869Z,27.07
2023-04-21T15:31:07.878Z,27.20
2023-04-21T15:33:36.440Z,27.34
2023-04-21T15:36:03.176Z,27.66
2023-04-21T15:38:29.734Z,27.49
2023-04-21T15:41:01.290Z,27.57
2023-04-21T15:43:28.612Z,27.54
2023-04-21T15:45:55.566Z,27.40
2023-04-21T15:48:22.550Z,27.86
2023-04-21T15:50:49.240Z,27.61
2023-04-21T15:53:17.886Z,27.53
2023-04-21T15:55:46.525Z,27.40
2023-04-21T15:58:13.173Z,27.51
2023-04-21T16:00:41.283Z,27.49
2023-04-21T16:03:08.589Z,27.65
2023-04-21T16:05:35.677Z,27.46
2023-04-21T16:08:02.371Z,27.74
2023-04-21T16:10:28.996Z,28.24
2023-04-21T16:12:55.700Z,28.53
2023-04-21T16:15:24.779Z,28.73
2023-04-21T16:17:52.669Z,28.75
2023-04-21T16:20:19.520Z,28.74
2023-04-21T16:22:49.128Z,28.81
2023-04-21T16:25:18.250Z,28.86
2023-04-21T16:27:45.109Z,28.83
2023-04-21T16:30:11.858Z,28.89
2023-04-21T16:32:38.448Z,29.02
2023-04-21T16:35:07.251Z,29.26
